createdAt,value
2019-01-11T00:01:39.630Z,6.97
2019-01-11T00:04:06.900Z,5.40
2019-01-11T00:06:34.098Z,7.27
2019-01-11T00:09:01.312Z,5.67
2019-01-11T00:11:28.573Z,5.53
2019-01-11T00:13:55.747Z,5.30
2019-01-11T00:16:22.914Z,6.80
2019-01-11T00:18:50.256Z,5.47
2019-01-11T00:21:17.446Z,8.60
2019-01-11T00:23:44.811Z,6.53
2019-01-11T00:26:12.056Z,8.07
2019-01-11T00:28:39.279Z,6.07
2019-01-11T00:31:06.528Z,6.47
2019-01-11T00:33:33.790Z,5.67
2019-01-11T00:36:01.283Z,7.30
2019-01-11T00:38:28.501Z,6.50
2019-01-11T00:40:55.760Z,9.90
2019-01-11T00:43:23.124Z,6.20
2019-01-11T00:45:50.402Z,13.23
2019-01-11T00:48:18.012Z,7.67
2019-01-11T00:50:45.227Z,6.03
2019-01-11T00:53:12.511Z,5.60
2019-01-11T00:55:39.835Z,5.70
2019-01-11T00:58:07.252Z,6.17
2019-01-11T01:00:34.521Z,7.10
2019-01-11T01:03:01.755Z,4.57
2019-01-11T01:05:30.218Z,5.90
2019-01-11T01:07:57.541Z,12.40
2019-01-11T01:10:24.842Z,3.97
2019-01-11T01:12:52.161Z,4.00
2019-01-11T01:15:20.215Z,4.90
2019-01-11T01:17:47.641Z,5.23
2019-01-11T01:20:15.039Z,5.13
2019-01-11T01:22:42.342Z,5.57
2019-01-11T01:25:11.213Z,5.70
2019-01-11T01:27:38.443Z,6.97
2019-01-11T01:30:09.172Z,7.97
2019-01-11T01:32:36.443Z,7.37
2019-01-11T01:35:03.989Z,8.57
2019-01-11T01:37:32.659Z,10.23
2019-01-11T01:39:59.950Z,7.50
2019-01-11T01:42:27.386Z,11.53
2019-01-11T01:44:54.749Z,11.87
2019-01-11T01:47:22.014Z,10.77
2019-01-11T01:49:49.251Z,13.97
2019-01-11T01:52:16.532Z,11.17
2019-01-11T01:54:43.775Z,11.97
2019-01-11T01:57:11.016Z,10.97
2019-01-11T01:59:38.300Z,12.73
2019-01-11T02:02:06.249Z,14.67
2019-01-11T02:04:33.581Z,14.30
2019-01-11T02:07:00.806Z,20.13
2019-01-11T02:09:28.330Z,14.53
2019-01-11T02:11:55.682Z,11.83
2019-01-11T02:14:22.913Z,16.53
2019-01-11T02:16:50.126Z,17.13
2019-01-11T02:19:17.412Z,18.57
2019-01-11T02:21:44.921Z,17.23
2019-01-11T02:24:12.133Z,19.37
2019-01-11T02:26:40.214Z,15.80
2019-01-11T02:29:07.824Z,18.57
2019-01-11T02:31:35.101Z,14.63
2019-01-11T02:34:02.387Z,14.67
2019-01-11T02:36:29.598Z,18.10
2019-01-11T02:38:56.968Z,16.17
2019-01-11T02:41:26.658Z,13.57
2019-01-11T02:43:53.894Z,17.47
2019-01-11T02:46:21.437Z,17.37
2019-01-11T02:48:48.709Z,15.53
2019-01-11T02:51:16.050Z,12.27
2019-01-11T02:53:43.371Z,15.77
2019-01-11T02:56:10.603Z,16.30
2019-01-11T02:58:37.879Z,15.33
2019-01-11T03:01:05.089Z,16.63
2019-01-11T03:03:32.354Z,13.83
2019-01-11T03:05:59.587Z,15.67
2019-01-11T03:08:26.906Z,11.50
2019-01-11T03:10:54.276Z,10.43
2019-01-11T03:13:21.503Z,13.77
2019-01-11T03:15:48.713Z,14.43
2019-01-11T03:18:15.962Z,19.77
2019-01-11T03:20:43.175Z,14.93
2019-01-11T03:23:10.397Z,18.00
2019-01-11T03:25:37.733Z,22.17
2019-01-11T03:28:05.062Z,15.50
2019-01-11T03:30:32.314Z,14.77
2019-01-11T03:32:59.540Z,23.27
2019-01-11T03:35:26.774Z,17.03
2019-01-11T03:37:54.042Z,16.53
2019-01-11T03:40:22.988Z,16.20
2019-01-11T03:42:50.244Z,18.80
2019-01-11T03:45:18.658Z,14.10
2019-01-11T03:47:45.989Z,16.33
2019-01-11T03:50:13.879Z,15.67
2019-01-11T03:52:41.119Z,19.23
2019-01-11T03:55:10.106Z,20.23
2019-01-11T03:57:37.382Z,14.67
2019-01-11T04:00:06.956Z,26.17
2019-01-11T04:02:34.184Z,21.00
2019-01-11T04:05:01.477Z,24.33
2019-01-11T04:07:28.738Z,20.00
2019-01-11T04:09:55.943Z,23.37
2019-01-11T04:12:23.218Z,19.67
2019-01-11T04:14:50.572Z,22.23
2019-01-11T04:17:18.029Z,25.63
2019-01-11T04:19:45.347Z,26.93
2019-01-11T04:22:29.817Z,27.67
2019-01-11T04:25:07.342Z,25.50
2019-01-11T04:27:34.551Z,29.20
2019-01-11T04:30:01.905Z,29.80
2019-01-11T04:32:29.166Z,33.07
2019-01-11T04:34:56.442Z,30.90
2019-01-11T04:37:23.796Z,25.97
2019-01-11T04:39:51.294Z,30.83
2019-01-11T04:42:18.548Z,34.63
2019-01-11T04:44:45.751Z,32.93
2019-01-11T04:47:13.037Z,30.37
2019-01-11T04:49:41.428Z,30.07
2019-01-11T04:52:08.732Z,31.50
2019-01-11T04:54:35.984Z,31.50
2019-01-11T04:57:03.665Z,28.30
2019-01-11T04:59:31.312Z,39.20
2019-01-11T05:01:58.553Z,39.83
2019-01-11T05:04:25.881Z,30.67
2019-01-11T05:06:55.092Z,31.63
2019-01-11T05:09:22.348Z,26.70
2019-01-11T05:11:49.973Z,37.97
2019-01-11T05:14:17.516Z,33.40
2019-01-11T05:16:44.812Z,31.93
2019-01-11T05:19:12.014Z,31.33
2019-01-11T05:21:40.413Z,30.67
2019-01-11T05:24:07.613Z,29.63
2019-01-11T05:26:34.831Z,34.53
2019-01-11T05:29:02.093Z,27.33
2019-01-11T05:31:29.354Z,29.43
2019-01-11T05:33:56.565Z,32.10
2019-01-11T05:36:23.864Z,24.27
2019-01-11T05:38:51.112Z,25.40
2019-01-11T05:41:18.324Z,22.73
2019-01-11T05:43:45.613Z,20.83
2019-01-11T05:46:12.834Z,23.90
2019-01-11T05:48:40.087Z,16.93
2019-01-11T05:51:07.375Z,17.47
2019-01-11T05:53:34.651Z,20.40
2019-01-11T05:56:07.011Z,24.37
2019-01-11T05:58:48.063Z,21.57
2019-01-11T06:01:17.279Z,24.90
2019-01-11T06:03:44.542Z,23.73
2019-01-11T06:06:11.868Z,20.27
2019-01-11T06:08:39.596Z,25.03
2019-01-11T06:11:06.955Z,21.10
2019-01-11T06:13:34.458Z,24.53
2019-01-11T06:16:01.978Z,17.63
2019-01-11T06:18:29.526Z,25.00
2019-01-11T06:20:56.773Z,17.63
2019-01-11T06:23:24.236Z,21.07
2019-01-11T06:25:51.507Z,16.37
2019-01-11T06:28:18.728Z,17.63
2019-01-11T06:30:46.102Z,16.43
2019-01-11T06:33:13.425Z,22.57
2019-01-11T06:35:40.987Z,18.50
2019-01-11T06:38:08.253Z,14.77
2019-01-11T06:40:35.582Z,25.17
2019-01-11T06:43:05.537Z,16.43
2019-01-11T06:45:32.789Z,24.33
2019-01-11T06:48:00.120Z,15.37
2019-01-11T06:50:27.397Z,20.27
2019-01-11T06:52:55.493Z,18.33
2019-01-11T06:55:23.148Z,23.53
2019-01-11T06:57:50.396Z,23.60
2019-01-11T07:00:18.264Z,16.23
2019-01-11T07:02:45.626Z,27.43
2019-01-11T07:05:12.824Z,19.37
2019-01-11T07:07:40.199Z,17.17
2019-01-11T07:10:11.675Z,23.30
2019-01-11T07:12:38.911Z,25.60
2019-01-11T07:15:07.063Z,17.73
2019-01-11T07:17:34.509Z,15.77
2019-01-11T07:20:05.507Z,18.37
2019-01-11T07:22:30.811Z,16.70
2019-01-11T07:24:58.156Z,19.37
2019-01-11T07:27:26.192Z,24.20
2019-01-11T07:29:53.462Z,21.27
2019-01-11T07:32:21.067Z,20.13
2019-01-11T07:34:48.283Z,18.87
2019-01-11T07:37:15.502Z,24.87
2019-01-11T07:39:42.732Z,17.80
2019-01-11T07:42:09.951Z,18.70
2019-01-11T07:44:37.182Z,17.80
2019-01-11T07:47:04.622Z,19.07
2019-01-11T07:49:31.984Z,18.83
2019-01-11T07:51:59.335Z,21.87
2019-01-11T07:54:26.551Z,16.03
2019-01-11T07:56:53.872Z,21.00
2019-01-11T07:59:21.986Z,16.43
2019-01-11T08:01:49.549Z,21.50
2019-01-11T08:04:17.499Z,17.97
2019-01-11T08:06:44.766Z,15.13
2019-01-11T08:09:11.986Z,18.57
2019-01-11T08:11:39.270Z,15.90
2019-01-11T08:14:08.047Z,14.33
2019-01-11T08:16:35.306Z,18.97
2019-01-11T08:19:04.748Z,13.20
2019-01-11T08:21:32.119Z,14.93
2019-01-11T08:24:00.604Z,18.13
2019-01-11T08:26:27.970Z,11.67
2019-01-11T08:28:55.210Z,12.83
2019-01-11T08:31:22.502Z,13.77
2019-01-11T08:33:49.852Z,14.77
2019-01-11T08:36:17.101Z,15.90
2019-01-11T08:38:44.332Z,14.23
2019-01-11T08:41:11.586Z,14.80
2019-01-11T08:43:38.947Z,18.10
2019-01-11T08:46:06.176Z,20.73
2019-01-11T08:48:33.429Z,16.90
2019-01-11T08:51:02.740Z,18.00
2019-01-11T08:53:30.003Z,19.80
2019-01-11T08:55:57.270Z,16.47
2019-01-11T08:58:24.507Z,16.10
2019-01-11T09:00:52.543Z,16.30
2019-01-11T09:03:19.848Z,13.87
2019-01-11T09:05:47.107Z,14.27
2019-01-11T09:08:14.431Z,17.17
2019-01-11T09:10:41.649Z,16.27
2019-01-11T09:13:08.935Z,18.73
2019-01-11T09:15:36.162Z,17.10
2019-01-11T09:18:13.818Z,13.23
2019-01-11T09:20:41.952Z,16.67
2019-01-11T09:23:09.370Z,19.77
2019-01-11T09:25:36.549Z,18.47
2019-01-11T09:28:03.860Z,20.07
2019-01-11T09:30:31.085Z,21.37
2019-01-11T09:32:58.289Z,19.27
2019-01-11T09:35:25.631Z,19.20
2019-01-11T09:37:52.809Z,20.63
2019-01-11T09:40:20.566Z,19.20
2019-01-11T09:42:47.795Z,20.73
2019-01-11T09:45:15.102Z,15.87
2019-01-11T09:47:42.583Z,18.03
2019-01-11T09:50:10.207Z,16.27
2019-01-11T09:52:37.444Z,15.17
2019-01-11T09:55:05.327Z,22.20
2019-01-11T09:57:33.075Z,19.33
2019-01-11T10:00:00.874Z,19.20
2019-01-11T10:02:38.971Z,21.60
2019-01-11T10:05:08.457Z,16.00
2019-01-11T10:07:35.733Z,23.87
2019-01-11T10:10:04.186Z,21.20
2019-01-11T10:12:31.387Z,17.93
2019-01-11T10:14:59.769Z,14.53
2019-01-11T10:17:26.970Z,19.23
2019-01-11T10:19:54.465Z,16.63
2019-01-11T10:22:21.733Z,20.80
2019-01-11T10:24:48.930Z,12.37
2019-01-11T10:27:16.107Z,20.13
2019-01-11T10:29:43.431Z,20.93
2019-01-11T10:32:10.620Z,12.07
2019-01-11T10:34:37.833Z,20.87
2019-01-11T10:37:05.325Z,15.37
2019-01-11T10:39:32.508Z,17.10
2019-01-11T10:41:59.749Z,20.40
2019-01-11T10:44:27.615Z,19.20
2019-01-11T10:46:54.810Z,15.67
2019-01-11T10:49:22.554Z,16.13
2019-01-11T10:51:50.705Z,15.07
2019-01-11T10:54:30.421Z,15.40
2019-01-11T10:57:03.854Z,14.73
2019-01-11T10:59:31.071Z,7.50
2019-01-11T11:01:58.331Z,13.30
2019-01-11T11:04:25.656Z,14.20
2019-01-11T11:06:52.847Z,18.17
2019-01-11T11:09:20.426Z,11.13
2019-01-11T11:11:47.613Z,13.63
2019-01-11T11:14:14.825Z,15.97
2019-01-11T11:16:41.997Z,13.30
2019-01-11T11:19:09.524Z,14.03
2019-01-11T11:21:37.045Z,14.37
2019-01-11T11:24:04.721Z,14.30
2019-01-11T11:26:31.941Z,10.57
2019-01-11T11:28:59.140Z,11.37
2019-01-11T11:31:26.353Z,14.40
2019-01-11T11:33:53.610Z,15.97
2019-01-11T11:36:21.100Z,14.03
2019-01-11T11:38:48.321Z,11.27
2019-01-11T11:41:15.741Z,10.13
2019-01-11T11:43:42.935Z,16.70
2019-01-11T11:46:10.593Z,17.67
2019-01-11T11:48:37.790Z,19.93
2019-01-11T11:51:04.963Z,12.73
2019-01-11T11:53:32.175Z,17.37
2019-01-11T11:55:59.581Z,17.00
2019-01-11T11:58:27.077Z,15.70
2019-01-11T12:00:54.289Z,13.13
2019-01-11T12:03:22.147Z,10.00
2019-01-11T12:05:51.392Z,9.07
2019-01-11T12:08:18.772Z,9.50
2019-01-11T12:10:46.363Z,11.57
2019-01-11T12:13:13.641Z,10.20
2019-01-11T12:15:40.954Z,8.23
2019-01-11T12:18:08.165Z,13.10
2019-01-11T12:20:37.472Z,18.07
2019-01-11T12:23:12.021Z,17.20
2019-01-11T12:25:41.978Z,16.70
2019-01-11T12:28:12.291Z,17.33
2019-01-11T12:30:39.485Z,18.53
2019-01-11T12:33:06.734Z,15.80
2019-01-11T12:35:33.917Z,17.30
2019-01-11T12:38:01.541Z,17.10
2019-01-11T12:40:28.834Z,18.87
2019-01-11T12:42:56.043Z,21.60
2019-01-11T12:45:23.350Z,15.40
2019-01-11T12:47:50.572Z,23.07
2019-01-11T12:50:22.466Z,20.30
2019-01-11T12:52:49.663Z,22.40
2019-01-11T12:55:16.889Z,21.37
2019-01-11T12:57:44.309Z,22.87
2019-01-11T13:00:13.326Z,19.17
2019-01-11T13:02:41.016Z,23.20
2019-01-11T13:05:11.243Z,16.50
2019-01-11T13:07:38.552Z,19.30
2019-01-11T13:10:07.793Z,20.37
2019-01-11T13:12:35.269Z,16.07
2019-01-11T13:15:04.187Z,17.13
2019-01-11T13:17:32.031Z,16.27
2019-01-11T13:19:59.378Z,16.50
2019-01-11T13:22:29.419Z,14.40
2019-01-11T13:24:56.656Z,15.37
2019-01-11T13:27:23.855Z,15.90
2019-01-11T13:29:51.061Z,11.80
2019-01-11T13:32:19.419Z,13.40
2019-01-11T13:34:46.706Z,14.10
2019-01-11T13:37:13.889Z,15.17
2019-01-11T13:39:41.110Z,20.07
2019-01-11T13:42:08.324Z,19.13
2019-01-11T13:44:35.845Z,15.30
2019-01-11T13:47:04.743Z,16.90
2019-01-11T13:49:32.098Z,10.97
2019-01-11T13:51:59.319Z,14.27
2019-01-11T13:54:27.658Z,21.33
2019-01-11T13:56:56.222Z,12.67
2019-01-11T13:59:24.071Z,20.27
2019-01-11T14:01:51.557Z,14.07
2019-01-11T14:04:19.007Z,20.40
2019-01-11T14:06:46.325Z,16.53
2019-01-11T14:09:13.507Z,25.50
2019-01-11T14:11:40.755Z,19.10
2019-01-11T14:14:07.928Z,21.77
2019-01-11T14:16:36.290Z,20.10
2019-01-11T14:19:09.022Z,21.63
2019-01-11T14:21:37.898Z,24.33
2019-01-11T14:24:05.346Z,21.30
2019-01-11T14:26:32.550Z,20.50
2019-01-11T14:28:59.724Z,20.27
2019-01-11T14:31:26.986Z,19.97
2019-01-11T14:33:54.212Z,21.50
2019-01-11T14:36:38.261Z,11.63
2019-01-11T14:39:08.164Z,20.97
2019-01-11T14:41:35.648Z,15.20
2019-01-11T14:44:03.309Z,17.20
2019-01-11T14:46:30.802Z,17.80
2019-01-11T14:48:58.377Z,18.50
2019-01-11T14:51:25.732Z,19.47
2019-01-11T14:53:52.943Z,18.07
2019-01-11T14:56:20.290Z,19.57
2019-01-11T14:58:47.544Z,21.33
2019-01-11T15:01:14.943Z,16.47
2019-01-11T15:03:42.262Z,22.57
2019-01-11T15:06:09.802Z,16.47
2019-01-11T15:08:37.173Z,14.20
2019-01-11T15:11:04.431Z,21.40
2019-01-11T15:13:31.683Z,16.87
2019-01-11T15:15:58.912Z,20.03
2019-01-11T15:18:26.191Z,18.40
2019-01-11T15:20:54.908Z,19.27
2019-01-11T15:23:23.008Z,19.40
2019-01-11T15:25:50.239Z,15.37
2019-01-11T15:28:17.531Z,24.27
2019-01-11T15:30:45.535Z,15.87
2019-01-11T15:33:12.889Z,16.73
2019-01-11T15:35:42.907Z,19.03
2019-01-11T15:38:10.452Z,15.17
2019-01-11T15:40:38.425Z,14.90
2019-01-11T15:43:05.770Z,18.67
2019-01-11T15:45:33.053Z,16.77
2019-01-11T15:48:00.307Z,14.83
2019-01-11T15:50:59.286Z,17.60
2019-01-11T15:53:33.470Z,15.60
2019-01-11T15:56:00.840Z,17.27
2019-01-11T15:58:28.379Z,21.73
2019-01-11T16:00:55.650Z,17.43
2019-01-11T16:03:23.347Z,19.47
2019-01-11T16:06:23.666Z,16.47
2019-01-11T16:10:03.711Z,18.77
2019-01-11T16:12:49.273Z,17.83
2019-01-11T16:15:33.947Z,21.67
2019-01-11T16:18:04.727Z,22.27
2019-01-11T16:20:31.983Z,23.33
2019-01-11T16:22:59.242Z,17.43
2019-01-11T16:25:26.572Z,16.00
2019-01-11T16:27:54.299Z,16.63
2019-01-11T16:30:21.527Z,23.80
2019-01-11T16:32:48.766Z,20.03
2019-01-11T16:35:16.040Z,25.70
2019-01-11T16:37:43.243Z,20.90
2019-01-11T16:40:10.718Z,21.10
2019-01-11T16:42:38.782Z,24.17
2019-01-11T16:45:08.306Z,20.97
2019-01-11T16:47:35.567Z,25.77
2019-01-11T16:50:03.874Z,21.93
2019-01-11T16:52:31.083Z,23.57
2019-01-11T16:54:58.311Z,23.10
2019-01-11T16:57:25.510Z,26.60
2019-01-11T16:59:52.757Z,23.97
2019-01-11T17:02:20.012Z,17.67
2019-01-11T17:04:47.274Z,22.83
2019-01-11T17:07:14.505Z,18.60
2019-01-11T17:09:41.836Z,20.53
2019-01-11T17:12:09.067Z,31.13
2019-01-11T17:14:36.896Z,38.37
2019-01-11T17:17:04.122Z,24.37
2019-01-11T17:19:31.378Z,20.80
2019-01-11T17:22:06.091Z,25.50
2019-01-11T17:24:33.343Z,21.47
2019-01-11T17:27:00.675Z,25.20
2019-01-11T17:29:28.295Z,29.20
2019-01-11T17:31:55.588Z,26.00
2019-01-11T17:34:22.819Z,33.93
2019-01-11T17:36:50.089Z,25.93
2019-01-11T17:39:17.401Z,21.67
2019-01-11T17:41:44.792Z,25.63
2019-01-11T17:44:12.034Z,28.90
2019-01-11T17:46:39.475Z,28.40
2019-01-11T17:49:06.780Z,21.27
2019-01-11T17:51:34.178Z,26.93
2019-01-11T17:54:01.545Z,27.07
2019-01-11T17:56:30.007Z,22.73
2019-01-11T17:58:57.258Z,26.33
2019-01-11T18:01:24.569Z,23.20
2019-01-11T18:03:51.854Z,25.93
2019-01-11T18:06:19.128Z,19.07
2019-01-11T18:08:46.385Z,23.77
2019-01-11T18:11:13.666Z,27.27
2019-01-11T18:13:41.029Z,20.63
2019-01-11T18:16:10.373Z,20.70
2019-01-11T18:18:37.933Z,25.40
2019-01-11T18:21:05.410Z,20.63
2019-01-11T18:23:32.655Z,21.67
2019-01-11T18:26:00.075Z,23.20
2019-01-11T18:28:28.694Z,16.80
2019-01-11T18:30:56.039Z,29.43
2019-01-11T18:33:25.789Z,21.97
2019-01-11T18:35:53.032Z,22.47
2019-01-11T18:38:20.307Z,28.57
2019-01-11T18:40:47.523Z,21.30
2019-01-11T18:43:15.068Z,22.17
2019-01-11T18:45:42.331Z,28.53
2019-01-11T18:48:09.789Z,35.50
2019-01-11T18:50:37.168Z,25.20
2019-01-11T18:53:04.409Z,29.97
2019-01-11T18:55:36.105Z,30.57
2019-01-11T18:58:03.509Z,30.17
2019-01-11T19:00:30.746Z,27.10
2019-01-11T19:02:58.009Z,26.03
2019-01-11T19:05:25.280Z,27.13
2019-01-11T19:07:52.812Z,24.40
2019-01-11T19:10:22.219Z,21.17
2019-01-11T19:12:49.490Z,28.10
2019-01-11T19:15:36.099Z,25.23
2019-01-11T19:18:03.341Z,25.87
2019-01-11T19:20:31.000Z,17.03
2019-01-11T19:22:59.545Z,20.23
2019-01-11T19:25:27.028Z,25.23
2019-01-11T19:27:54.238Z,17.00
2019-01-11T19:30:23.617Z,18.57
2019-01-11T19:32:51.131Z,28.73
2019-01-11T19:35:18.443Z,22.87
2019-01-11T19:37:45.687Z,23.83
2019-01-11T19:40:13.815Z,21.17
2019-01-11T19:42:41.485Z,25.67
2019-01-11T19:45:09.887Z,24.73
2019-01-11T19:47:37.175Z,25.17
2019-01-11T19:50:07.434Z,24.30
2019-01-11T19:52:34.635Z,21.63
2019-01-11T19:55:01.865Z,21.07
2019-01-11T19:57:29.114Z,18.43
2019-01-11T19:59:56.369Z,22.87
2019-01-11T20:02:23.599Z,18.27
2019-01-11T20:04:50.993Z,19.47
2019-01-11T20:07:18.383Z,17.83
2019-01-11T20:09:45.713Z,17.30
2019-01-11T20:12:13.089Z,9.37
2019-01-11T20:14:40.449Z,22.20
2019-01-11T20:17:14.064Z,20.00
2019-01-11T20:19:37.022Z,15.80
2019-01-11T20:22:04.693Z,13.90
2019-01-11T20:24:34.104Z,12.60
2019-01-11T20:27:03.812Z,14.43
2019-01-11T20:29:31.098Z,13.37
2019-01-11T20:31:58.355Z,13.43
2019-01-11T20:34:25.851Z,16.10
2019-01-11T20:37:03.455Z,15.47
2019-01-11T20:39:30.763Z,17.80
2019-01-11T20:41:58.056Z,17.33
2019-01-11T20:44:25.615Z,9.47
2019-01-11T20:46:52.852Z,13.57
2019-01-11T20:49:20.120Z,11.43
2019-01-11T20:51:47.500Z,14.17
2019-01-11T20:54:14.864Z,12.87
2019-01-11T20:56:46.565Z,11.17
2019-01-11T20:59:13.790Z,9.43
2019-01-11T21:01:41.186Z,10.37
2019-01-11T21:04:08.541Z,11.00
2019-01-11T21:06:35.951Z,12.60
2019-01-11T21:09:06.282Z,13.23
2019-01-11T21:11:33.536Z,9.67
2019-01-11T21:14:00.904Z,14.13
2019-01-11T21:16:28.801Z,16.77
2019-01-11T21:18:56.015Z,15.53
2019-01-11T21:21:23.478Z,9.40
2019-01-11T21:23:50.726Z,14.00
2019-01-11T21:26:18.020Z,12.47
2019-01-11T21:28:46.342Z,16.70
2019-01-11T21:31:13.657Z,16.50
2019-01-11T21:33:43.184Z,18.87
2019-01-11T21:36:10.407Z,15.27
2019-01-11T21:38:38.932Z,13.37
2019-01-11T21:41:07.864Z,14.10
2019-01-11T21:43:35.123Z,13.40
2019-01-11T21:46:03.445Z,13.57
2019-01-11T21:48:31.103Z,12.00
2019-01-11T21:50:58.562Z,6.47
2019-01-11T21:53:25.879Z,12.63
2019-01-11T21:55:53.172Z,11.67
2019-01-11T21:58:20.457Z,10.20
2019-01-11T22:00:49.356Z,16.90
2019-01-11T22:03:18.564Z,11.33
2019-01-11T22:05:45.836Z,13.17
2019-01-11T22:08:13.186Z,12.37
2019-01-11T22:10:40.449Z,16.10
2019-01-11T22:13:07.786Z,12.67
2019-01-11T22:15:35.062Z,20.30
2019-01-11T22:18:02.376Z,14.40
2019-01-11T22:20:29.572Z,12.27
2019-01-11T22:22:56.783Z,11.53
2019-01-11T22:25:24.045Z,11.93
2019-01-11T22:27:51.453Z,10.43
2019-01-11T22:30:20.276Z,8.77
2019-01-11T22:32:47.512Z,11.53
2019-01-11T22:35:14.831Z,13.57
2019-01-11T22:37:42.494Z,11.77
2019-01-11T22:40:12.893Z,8.20
2019-01-11T22:42:40.429Z,10.83
2019-01-11T22:45:09.032Z,7.03
2019-01-11T22:47:36.331Z,8.80
2019-01-11T22:50:05.096Z,8.57
2019-01-11T22:52:32.359Z,5.27
2019-01-11T22:54:59.654Z,9.33
2019-01-11T22:57:29.630Z,7.93
2019-01-11T22:59:56.882Z,7.40
2019-01-11T23:02:48.048Z,5.27
2019-01-11T23:05:15.551Z,10.27
2019-01-11T23:07:46.872Z,8.70
2019-01-11T23:10:27.971Z,8.17
2019-01-11T23:13:04.414Z,5.77
2019-01-11T23:15:34.421Z,8.20
2019-01-11T23:18:13.417Z,10.67
2019-01-11T23:20:40.704Z,8.27
2019-01-11T23:23:07.922Z,8.87
2019-01-11T23:25:35.167Z,6.03
2019-01-11T23:28:02.433Z,8.23
2019-01-11T23:30:29.801Z,8.63
2019-01-11T23:32:57.038Z,8.37
2019-01-11T23:35:24.335Z,11.87
2019-01-11T23:37:51.677Z,8.93
2019-01-11T23:40:18.915Z,12.47
2019-01-11T23:42:46.170Z,13.10
2019-01-11T23:45:13.476Z,16.47
2019-01-11T23:47:40.779Z,14.57
2019-01-11T23:50:11.284Z,8.73
2019-01-11T23:52:38.791Z,7.20
2019-01-11T23:55:06.993Z,6.80
2019-01-11T23:57:34.199Z,7.47
